createdAt,value
2022-09-23T00:00:17.432Z,97.7
2022-09-23T00:01:17.024Z,97.7
2022-09-23T00:02:17.239Z,97.7
2022-09-23T00:03:16.734Z,97.7
2022-09-23T00:04:17.237Z,97.7
2022-09-23T00:05:16.734Z,97.6
2022-09-23T00:06:17.198Z,97.5
2022-09-23T00:07:16.622Z,97.5
2022-09-23T00:08:17.085Z,97.5
2022-09-23T00:09:16.502Z,97.5
2022-09-23T00:10:16.915Z,97.5
2022-09-23T00:11:17.352Z,97.5
2022-09-23T00:12:16.956Z,97.5
2022-09-23T00:13:17.378Z,97.5
2022-09-23T00:14:16.866Z,97.4
2022-09-23T00:15:17.376Z,97.3
2022-09-23T00:16:16.981Z,97.2
2022-09-23T00:17:16.443Z,97.3
2022-09-23T00:18:16.930Z,97.4
2022-09-23T00:19:17.415Z,97.4
2022-09-23T00:20:16.900Z,97.4
2022-09-23T00:21:17.330Z,97.4
2022-09-23T00:22:16.677Z,97.5
2022-09-23T00:23:17.109Z,97.3
2022-09-23T00:24:16.525Z,97.2
2022-09-23T00:25:16.952Z,97.3
2022-09-23T00:26:17.410Z,97.4
2022-09-23T00:27:16.833Z,97.6
2022-09-23T00:28:17.302Z,97.5
2022-09-23T00:29:16.775Z,97.5
2022-09-23T00:30:17.257Z,97.5
2022-09-23T00:31:16.841Z,97.6
2022-09-23T00:32:17.116Z,97.6
2022-09-23T00:33:16.570Z,97.6
2022-09-23T00:34:17.041Z,97.6
2022-09-23T00:35:16.509Z,97.6
2022-09-23T00:36:16.963Z,97.7
2022-09-23T00:37:17.402Z,97.8
2022-09-23T00:38:16.872Z,97.8
2022-09-23T00:39:17.289Z,97.8
2022-09-23T00:40:16.885Z,97.8
2022-09-23T00:41:17.476Z,97.7
2022-09-23T00:42:16.705Z,97.7
2022-09-23T00:43:17.173Z,97.6
2022-09-23T00:44:16.628Z,97.6
2022-09-23T00:45:17.101Z,97.6
2022-09-23T00:46:16.809Z,97.5
2022-09-23T00:47:17.297Z,97.5
2022-09-23T00:48:16.745Z,97.5
2022-09-23T00:49:17.201Z,97.6
2022-09-23T00:50:16.684Z,97.7
2022-09-23T00:51:17.103Z,97.5
2022-09-23T00:52:16.851Z,97.5
2022-09-23T00:53:17.296Z,97.5
2022-09-23T00:54:16.761Z,97.5
2022-09-23T00:55:17.200Z,97.5
2022-09-23T00:56:16.625Z,97.4
2022-09-23T00:57:17.044Z,97.4
2022-09-23T00:58:16.500Z,97.5
2022-09-23T00:59:16.958Z,97.6
2022-09-23T01:00:17.436Z,97.5
2022-09-23T01:01:17.072Z,97.5
2022-09-23T01:02:17.315Z,97.5
2022-09-23T01:03:16.831Z,97.5
2022-09-23T01:04:17.301Z,97.5
2022-09-23T01:05:16.788Z,97.6
2022-09-23T01:06:17.221Z,97.7
2022-09-23T01:07:16.650Z,97.8
2022-09-23T01:08:17.075Z,97.8
2022-09-23T01:09:16.713Z,97.8
2022-09-23T01:10:17.184Z,97.7
2022-09-23T01:11:16.652Z,97.7
2022-09-23T01:12:17.266Z,97.7
2022-09-23T01:13:16.702Z,97.7
2022-09-23T01:14:17.135Z,97.7
2022-09-23T01:15:16.651Z,97.7
2022-09-23T01:16:17.219Z,97.8
2022-09-23T01:17:16.704Z,97.8
2022-09-23T01:18:17.177Z,97.8
2022-09-23T01:19:16.645Z,97.8
2022-09-23T01:20:17.070Z,97.7
2022-09-23T01:21:16.520Z,97.7
2022-09-23T01:22:16.537Z,97.6
2022-09-23T01:23:16.954Z,97.6
2022-09-23T01:24:17.397Z,97.7
2022-09-23T01:25:16.845Z,97.8
2022-09-23T01:26:17.264Z,97.8
2022-09-23T01:27:16.735Z,97.8
2022-09-23T01:28:17.213Z,97.8
2022-09-23T01:29:16.666Z,97.7
2022-09-23T01:30:17.104Z,97.7
2022-09-23T01:31:16.613Z,97.7
2022-09-23T01:32:16.969Z,97.7
2022-09-23T01:33:17.428Z,97.7
2022-09-23T01:34:16.893Z,97.7
2022-09-23T01:35:17.371Z,97.7
2022-09-23T01:36:16.790Z,97.7
2022-09-23T01:37:17.221Z,97.7
2022-09-23T01:38:16.691Z,97.7
2022-09-23T01:39:17.151Z,97.7
2022-09-23T01:40:16.794Z,97.7
2022-09-23T01:41:17.221Z,97.7
2022-09-23T01:42:16.493Z,97.6
2022-09-23T01:43:16.955Z,97.6
2022-09-23T01:44:17.413Z,97.5
2022-09-23T01:45:16.861Z,97.6
2022-09-23T01:46:17.302Z,97.6
2022-09-23T01:47:16.751Z,97.6
2022-09-23T01:48:17.298Z,97.7
2022-09-23T01:49:16.744Z,97.7
2022-09-23T01:50:17.171Z,97.7
2022-09-23T01:51:16.636Z,97.7
2022-09-23T01:52:16.543Z,97.7
2022-09-23T01:53:17.035Z,97.6
2022-09-23T01:54:16.474Z,97.7
2022-09-23T01:55:16.913Z,97.7
2022-09-23T01:56:17.350Z,97.7
2022-09-23T01:57:16.841Z,97.7
2022-09-23T01:58:17.298Z,97.7
2022-09-23T01:59:16.767Z,97.8
2022-09-23T02:00:17.271Z,97.8
2022-09-23T02:01:16.883Z,97.8
2022-09-23T02:02:17.467Z,97.8
2022-09-23T02:03:16.970Z,97.8
2022-09-23T02:04:17.402Z,97.8
2022-09-23T02:05:16.848Z,97.8
2022-09-23T02:06:17.280Z,97.8
2022-09-23T02:07:16.727Z,97.8
2022-09-23T02:08:17.151Z,97.8
2022-09-23T02:09:16.577Z,97.9
2022-09-23T02:10:17.019Z,98.0
2022-09-23T02:11:16.491Z,98.0
2022-09-23T02:12:16.943Z,97.9
2022-09-23T02:13:17.399Z,98.0
2022-09-23T02:14:16.860Z,98.0
2022-09-23T02:15:17.374Z,98.0
2022-09-23T02:16:16.932Z,98.0
2022-09-23T02:17:17.420Z,98.0
2022-09-23T02:18:16.851Z,98.0
2022-09-23T02:19:17.270Z,98.1
2022-09-23T02:20:16.698Z,98.1
2022-09-23T02:21:17.167Z,98.1
2022-09-23T02:22:16.422Z,98.0
2022-09-23T02:23:16.849Z,98.1
2022-09-23T02:24:17.273Z,98.1
2022-09-23T02:25:16.723Z,98.2
2022-09-23T02:26:17.189Z,98.2
2022-09-23T02:27:16.681Z,98.2
2022-09-23T02:28:17.160Z,98.2
2022-09-23T02:29:16.627Z,98.1
2022-09-23T02:30:17.247Z,98.2
2022-09-23T02:31:16.711Z,98.2
2022-09-23T02:32:16.550Z,98.3
2022-09-23T02:33:16.962Z,98.3
2022-09-23T02:34:17.411Z,98.3
2022-09-23T02:35:16.869Z,98.2
2022-09-23T02:36:17.298Z,98.0
2022-09-23T02:37:16.724Z,98.0
2022-09-23T02:38:17.181Z,98.0
2022-09-23T02:39:16.604Z,98.0
2022-09-23T02:40:17.258Z,97.8
2022-09-23T02:41:16.760Z,97.8
2022-09-23T02:42:17.021Z,97.8
2022-09-23T02:43:16.490Z,97.8
2022-09-23T02:44:16.939Z,97.8
2022-09-23T02:45:17.401Z,97.8
2022-09-23T02:46:16.954Z,97.8
2022-09-23T02:47:16.408Z,97.8
2022-09-23T02:48:16.827Z,97.8
2022-09-23T02:49:16.916Z,97.7
2022-09-23T02:50:17.360Z,97.7
2022-09-23T02:51:16.840Z,97.7
2022-09-23T02:52:17.225Z,97.7
2022-09-23T02:53:16.683Z,97.7
2022-09-23T02:54:17.140Z,97.7
2022-09-23T02:55:16.602Z,97.7
2022-09-23T02:56:17.083Z,97.7
2022-09-23T02:57:16.558Z,97.7
2022-09-23T02:58:17.012Z,97.7
2022-09-23T02:59:16.471Z,97.7
2022-09-23T03:00:16.957Z,97.7
2022-09-23T03:01:17.612Z,97.7
2022-09-23T03:02:17.030Z,97.7
2022-09-23T03:03:16.503Z,97.7
2022-09-23T03:04:16.944Z,97.7
2022-09-23T03:05:17.393Z,97.7
2022-09-23T03:06:16.810Z,97.7
2022-09-23T03:07:17.280Z,97.7
2022-09-23T03:08:16.700Z,97.8
2022-09-23T03:09:17.146Z,97.8
2022-09-23T03:10:16.615Z,97.8
2022-09-23T03:11:17.105Z,97.8
2022-09-23T03:12:16.718Z,97.7
2022-09-23T03:13:17.175Z,97.7
2022-09-23T03:14:16.637Z,97.7
2022-09-23T03:15:17.092Z,97.7
2022-09-23T03:16:16.673Z,97.7
2022-09-23T03:17:17.150Z,97.7
2022-09-23T03:18:16.568Z,97.8
2022-09-23T03:19:17.006Z,97.7
2022-09-23T03:20:16.444Z,97.8
2022-09-23T03:21:16.880Z,97.8
2022-09-23T03:22:16.722Z,97.8
2022-09-23T03:23:17.141Z,97.8
2022-09-23T03:24:16.618Z,97.8
2022-09-23T03:25:17.090Z,97.8
2022-09-23T03:26:16.550Z,97.8
2022-09-23T03:27:17.007Z,97.8
2022-09-23T03:28:16.496Z,97.8
2022-09-23T03:29:16.965Z,97.9
2022-09-23T03:30:17.443Z,98.0
2022-09-23T03:31:16.994Z,98.0
2022-09-23T03:32:17.161Z,98.0
2022-09-23T03:33:16.641Z,98.0
2022-09-23T03:34:17.109Z,98.0
2022-09-23T03:35:16.541Z,98.0
2022-09-23T03:36:16.984Z,98.0
2022-09-23T03:37:16.412Z,98.1
2022-09-23T03:38:16.922Z,98.2
2022-09-23T03:39:17.389Z,98.2
2022-09-23T03:40:16.965Z,98.3
2022-09-23T03:41:16.457Z,98.3
2022-09-23T03:42:17.211Z,98.3
2022-09-23T03:43:16.686Z,98.3
2022-09-23T03:44:17.167Z,98.3
2022-09-23T03:45:16.613Z,98.3
2022-09-23T03:46:17.167Z,98.3
2022-09-23T03:47:16.696Z,98.3
2022-09-23T03:48:17.130Z,98.2
2022-09-23T03:49:16.555Z,98.3
2022-09-23T03:50:17.022Z,98.2
2022-09-23T03:51:16.452Z,98.2
2022-09-23T03:52:17.405Z,98.2
2022-09-23T03:53:16.853Z,98.2
2022-09-23T03:54:17.326Z,98.2
2022-09-23T03:55:16.773Z,98.2
2022-09-23T03:56:17.226Z,98.0
2022-09-23T03:57:16.688Z,98.0
2022-09-23T03:58:17.136Z,98.0
2022-09-23T03:59:16.595Z,98.0
2022-09-23T04:00:17.071Z,98.0
2022-09-23T04:01:16.709Z,98.0
2022-09-23T04:02:17.300Z,98.1
2022-09-23T04:03:16.768Z,98.1
2022-09-23T04:04:17.184Z,98.0
2022-09-23T04:05:16.637Z,98.0
2022-09-23T04:06:17.056Z,97.9
2022-09-23T04:07:16.520Z,97.8
2022-09-23T04:08:16.984Z,97.8
2022-09-23T04:09:16.466Z,97.8
2022-09-23T04:10:16.925Z,97.8
2022-09-23T04:11:17.392Z,97.8
2022-09-23T04:12:17.006Z,97.8
2022-09-23T04:13:16.485Z,97.8
2022-09-23T04:14:16.935Z,97.8
2022-09-23T04:15:17.429Z,97.7
2022-09-23T04:16:16.962Z,97.7
2022-09-23T04:17:16.399Z,97.7
2022-09-23T04:18:16.817Z,97.7
2022-09-23T04:19:17.275Z,97.6
2022-09-23T04:20:16.700Z,97.6
2022-09-23T04:21:17.140Z,97.5
2022-09-23T04:22:16.676Z,97.4
2022-09-23T04:23:17.122Z,97.4
2022-09-23T04:24:16.625Z,97.3
2022-09-23T04:25:17.125Z,97.4
2022-09-23T04:26:16.629Z,97.5
2022-09-23T04:27:17.095Z,97.5
2022-09-23T04:28:16.541Z,97.5
2022-09-23T04:29:16.971Z,97.5
2022-09-23T04:30:17.454Z,97.5
2022-09-23T04:31:17.109Z,97.5
2022-09-23T04:32:16.921Z,97.5
2022-09-23T04:33:17.351Z,97.5
2022-09-23T04:34:16.813Z,97.5
2022-09-23T04:35:17.238Z,97.6
2022-09-23T04:36:16.660Z,97.5
2022-09-23T04:37:17.128Z,97.5
2022-09-23T04:38:16.587Z,97.5
2022-09-23T04:39:17.061Z,97.5
2022-09-23T04:40:16.629Z,97.5
2022-09-23T04:41:17.119Z,97.6
2022-09-23T04:42:17.340Z,97.6
2022-09-23T04:43:16.805Z,97.5
2022-09-23T04:44:17.244Z,97.5
2022-09-23T04:45:16.681Z,97.5
2022-09-23T04:46:17.292Z,97.5
2022-09-23T04:47:16.733Z,97.5
2022-09-23T04:48:17.208Z,97.5
2022-09-23T04:49:16.653Z,97.5
2022-09-23T04:50:17.092Z,97.5
2022-09-23T04:51:16.558Z,97.5
2022-09-23T04:52:16.670Z,97.5
2022-09-23T04:53:17.170Z,97.5
2022-09-23T04:54:16.670Z,97.5
2022-09-23T04:55:17.131Z,97.5
2022-09-23T04:56:16.589Z,97.5
2022-09-23T04:57:17.084Z,97.5
2022-09-23T04:58:16.538Z,97.4
2022-09-23T04:59:16.982Z,97.5
2022-09-23T05:00:16.492Z,97.5
2022-09-23T05:01:17.051Z,97.5
2022-09-23T05:02:16.611Z,97.5
2022-09-23T05:03:17.075Z,97.6
2022-09-23T05:04:16.500Z,97.5
2022-09-23T05:05:16.941Z,97.6
2022-09-23T05:06:17.413Z,97.6
2022-09-23T05:07:16.854Z,97.6
2022-09-23T05:08:17.310Z,97.6
2022-09-23T05:09:16.779Z,97.7
2022-09-23T05:10:17.224Z,97.7
2022-09-23T05:11:16.706Z,97.7
2022-09-23T05:12:16.553Z,97.7
2022-09-23T05:13:16.988Z,97.6
2022-09-23T05:14:16.415Z,97.6
2022-09-23T05:15:17.063Z,97.6
2022-09-23T05:16:16.669Z,97.5
2022-09-23T05:17:17.172Z,97.5
2022-09-23T05:18:21.002Z,97.5
2022-09-23T05:19:16.530Z,97.5
2022-09-23T05:20:16.960Z,97.5
2022-09-23T05:21:17.446Z,97.6
2022-09-23T05:22:16.845Z,97.6
2022-09-23T05:23:17.301Z,97.7
2022-09-23T05:24:16.755Z,97.8
2022-09-23T05:25:17.224Z,97.8
2022-09-23T05:26:16.710Z,97.8
2022-09-23T05:27:17.178Z,97.8
2022-09-23T05:28:16.601Z,97.7
2022-09-23T05:29:17.018Z,97.7
2022-09-23T05:30:16.458Z,97.5
2022-09-23T05:31:20.883Z,97.5
2022-09-23T05:32:16.703Z,97.5
2022-09-23T05:33:17.120Z,97.6
2022-09-23T05:34:16.542Z,97.6
2022-09-23T05:35:16.976Z,97.6
2022-09-23T05:36:16.464Z,97.5
2022-09-23T05:37:16.929Z,97.5
2022-09-23T05:38:17.388Z,97.5
2022-09-23T05:39:16.862Z,97.5
2022-09-23T05:40:17.630Z,97.6
2022-09-23T05:41:17.137Z,97.5
2022-09-23T05:42:16.858Z,97.7
2022-09-23T05:43:17.299Z,97.7
2022-09-23T05:44:16.746Z,97.7
2022-09-23T05:45:17.174Z,97.7
2022-09-23T05:46:16.783Z,97.5
2022-09-23T05:47:17.240Z,97.3
2022-09-23T05:48:16.694Z,97.2
2022-09-23T05:49:17.157Z,97.0
2022-09-23T05:50:16.645Z,97.0
2022-09-23T05:51:17.114Z,97.0
2022-09-23T05:52:16.608Z,96.9
2022-09-23T05:53:17.105Z,96.9
2022-09-23T05:54:16.594Z,96.8
2022-09-23T05:55:17.076Z,96.5
2022-09-23T05:56:16.525Z,96.2
2022-09-23T05:57:16.957Z,96.1
2022-09-23T05:58:17.389Z,96.0
2022-09-23T05:59:16.813Z,96.0
2022-09-23T06:00:17.306Z,95.9
2022-09-23T06:01:16.736Z,95.8
2022-09-23T06:02:16.938Z,95.8
2022-09-23T06:03:17.470Z,95.7
2022-09-23T06:04:16.964Z,95.6
2022-09-23T06:05:17.409Z,95.7
2022-09-23T06:06:16.864Z,95.7
2022-09-23T06:07:17.333Z,95.3
2022-09-23T06:08:16.810Z,95.2
2022-09-23T06:09:17.270Z,95.1
2022-09-23T06:10:16.694Z,95.0
2022-09-23T06:11:17.137Z,94.8
2022-09-23T06:12:16.765Z,94.8
2022-09-23T06:13:17.226Z,94.5
2022-09-23T06:14:16.649Z,94.5
2022-09-23T06:15:17.066Z,94.5
2022-09-23T06:16:16.843Z,94.3
2022-09-23T06:17:17.864Z,94.6
2022-09-23T06:18:17.349Z,94.8
2022-09-23T06:19:16.789Z,95.0
2022-09-23T06:20:17.249Z,94.9
2022-09-23T06:21:16.728Z,95.0
2022-09-23T06:22:16.436Z,94.8
2022-09-23T06:23:16.895Z,94.7
2022-09-23T06:24:22.985Z,94.5
2022-09-23T06:25:17.222Z,94.4
2022-09-23T06:26:16.693Z,94.2
2022-09-23T06:27:17.117Z,94.2
2022-09-23T06:28:16.538Z,94.2
2022-09-23T06:29:16.956Z,94.1
2022-09-23T06:30:17.395Z,93.8
2022-09-23T06:31:17.026Z,93.7
2022-09-23T06:32:16.900Z,93.7
2022-09-23T06:33:35.529Z,93.8
2022-09-23T06:34:17.084Z,93.7
2022-09-23T06:35:27.685Z,93.5
2022-09-23T06:36:39.853Z,93.7
2022-09-23T06:37:20.764Z,93.8
2022-09-23T06:38:17.435Z,93.8
2022-09-23T06:39:16.926Z,93.6
2022-09-23T06:40:17.578Z,93.4
2022-09-23T06:41:17.037Z,93.5
2022-09-23T06:42:16.678Z,93.5
2022-09-23T06:43:17.144Z,93.5
2022-09-23T06:44:16.568Z,93.4
2022-09-23T06:45:16.989Z,93.5
2022-09-23T06:46:16.616Z,93.4
2022-09-23T06:47:17.130Z,93.2
2022-09-23T06:48:16.600Z,93.0
2022-09-23T06:49:17.073Z,93.0
2022-09-23T06:50:16.528Z,93.1
2022-09-23T06:51:17.010Z,93.0
2022-09-23T06:52:17.393Z,92.8
2022-09-23T06:53:16.809Z,92.8
2022-09-23T06:54:17.260Z,92.8
2022-09-23T06:55:16.679Z,92.7
2022-09-23T06:56:17.123Z,92.6
2022-09-23T06:57:16.570Z,92.2
2022-09-23T06:58:16.988Z,92.2
2022-09-23T06:59:16.419Z,92.0
2022-09-23T07:00:16.853Z,92.0
2022-09-23T07:01:17.479Z,91.9
2022-09-23T07:02:17.353Z,91.8
2022-09-23T07:03:16.846Z,91.7
2022-09-23T07:04:17.323Z,91.7
2022-09-23T07:05:16.788Z,91.6
2022-09-23T07:06:17.325Z,91.6
2022-09-23T07:07:16.771Z,91.2
2022-09-23T07:08:17.246Z,91.0
2022-09-23T07:09:16.701Z,90.6
2022-09-23T07:10:17.151Z,90.4
2022-09-23T07:11:16.571Z,90.2
2022-09-23T07:12:16.408Z,90.3
2022-09-23T07:13:16.828Z,90.0
2022-09-23T07:14:17.267Z,90.0
2022-09-23T07:15:16.753Z,89.9
2022-09-23T07:16:17.428Z,89.7
2022-09-23T07:17:16.991Z,89.2
2022-09-23T07:18:16.445Z,89.2
2022-09-23T07:19:16.905Z,88.8
2022-09-23T07:20:17.372Z,88.8
2022-09-23T07:21:16.845Z,88.8
2022-09-23T07:22:16.471Z,88.2
2022-09-23T07:23:16.908Z,88.2
2022-09-23T07:24:17.409Z,88.3
2022-09-23T07:25:16.856Z,88.2
2022-09-23T07:26:17.282Z,88.4
2022-09-23T07:27:16.749Z,88.4
2022-09-23T07:28:17.175Z,88.0
2022-09-23T07:29:16.597Z,87.6
2022-09-23T07:30:25.491Z,86.8
2022-09-23T07:31:34.755Z,86.5
2022-09-23T07:32:17.543Z,85.8
2022-09-23T07:33:31.992Z,85.5
2022-09-23T07:34:16.896Z,85.2
2022-09-23T07:35:17.399Z,85.4
2022-09-23T07:36:16.890Z,84.6
2022-09-23T07:37:17.356Z,84.8
2022-09-23T07:38:16.818Z,84.4
2022-09-23T07:39:17.241Z,83.8
2022-09-23T07:40:16.787Z,83.3
2022-09-23T07:41:17.265Z,83.0
2022-09-23T07:42:16.734Z,82.7
2022-09-23T07:43:17.200Z,82.4
2022-09-23T07:44:16.625Z,82.3
2022-09-23T07:45:17.097Z,82.1
2022-09-23T07:46:16.931Z,81.2
2022-09-23T07:47:16.452Z,81.0
2022-09-23T07:48:16.906Z,80.8
2022-09-23T07:49:17.411Z,80.7
2022-09-23T07:50:16.885Z,80.3
2022-09-23T07:51:17.338Z,80.3
2022-09-23T07:52:17.004Z,80.0
2022-09-23T07:53:16.428Z,79.7
2022-09-23T07:54:16.862Z,79.7
2022-09-23T07:55:21.230Z,80.2
2022-09-23T07:56:16.701Z,79.6
2022-09-23T07:57:17.117Z,79.6
2022-09-23T07:58:16.554Z,78.6
2022-09-23T07:59:17.030Z,77.9
2022-09-23T08:00:16.508Z,78.2
2022-09-23T08:01:17.164Z,78.7
2022-09-23T08:02:16.768Z,78.5
2022-09-23T08:03:17.382Z,78.7
2022-09-23T08:04:16.900Z,79.0
2022-09-23T08:05:17.388Z,77.3
2022-09-23T08:06:16.872Z,77.5
2022-09-23T08:07:17.317Z,78.2
2022-09-23T08:08:16.749Z,78.0
2022-09-23T08:09:17.190Z,77.8
2022-09-23T08:10:16.635Z,76.7
2022-09-23T08:11:17.071Z,76.3
2022-09-23T08:12:16.846Z,75.2
2022-09-23T08:13:17.275Z,74.9
2022-09-23T08:14:16.734Z,73.7
2022-09-23T08:15:17.162Z,72.9
2022-09-23T08:16:16.725Z,73.2
2022-09-23T08:17:17.234Z,72.9
2022-09-23T08:18:16.681Z,72.8
2022-09-23T08:19:17.151Z,72.1
2022-09-23T08:20:16.647Z,71.5
2022-09-23T08:21:17.124Z,71.3
2022-09-23T08:22:17.390Z,71.6
2022-09-23T08:23:16.920Z,71.2
2022-09-23T08:24:17.342Z,72.1
2022-09-23T08:25:21.751Z,72.2
2022-09-23T08:26:22.520Z,72.2
2022-09-23T08:27:17.038Z,72.8
2022-09-23T08:28:16.532Z,72.2
2022-09-23T08:29:16.976Z,71.1
2022-09-23T08:30:17.486Z,71.0
2022-09-23T08:31:17.323Z,72.3
2022-09-23T08:32:16.811Z,71.9
2022-09-23T08:33:23.698Z,72.8
2022-09-23T08:34:17.341Z,71.0
2022-09-23T08:35:16.840Z,70.5
2022-09-23T08:36:17.333Z,70.9
2022-09-23T08:37:16.794Z,70.8
2022-09-23T08:38:17.253Z,71.0
2022-09-23T08:39:16.672Z,71.8
2022-09-23T08:40:17.259Z,71.4
2022-09-23T08:41:16.697Z,71.5
2022-09-23T08:42:17.211Z,71.8
2022-09-23T08:43:16.675Z,71.5
2022-09-23T08:44:17.118Z,71.5
2022-09-23T08:45:16.550Z,72.2
2022-09-23T08:46:17.133Z,72.4
2022-09-23T08:47:16.612Z,71.8
2022-09-23T08:48:17.117Z,71.4
2022-09-23T08:49:16.594Z,71.8
2022-09-23T08:50:17.057Z,72.0
2022-09-23T08:51:16.572Z,72.2
2022-09-23T08:52:16.545Z,72.3
2022-09-23T08:53:16.974Z,72.2
2022-09-23T08:54:17.400Z,72.6
2022-09-23T08:55:16.826Z,71.2
2022-09-23T08:56:17.252Z,71.8
2022-09-23T08:57:16.726Z,71.2
2022-09-23T08:58:26.338Z,69.7
2022-09-23T08:59:16.962Z,68.9
2022-09-23T09:00:17.691Z,68.9
2022-09-23T09:01:17.268Z,68.8
2022-09-23T09:02:16.871Z,69.3
2022-09-23T09:03:17.386Z,69.2
2022-09-23T09:04:16.836Z,68.8
2022-09-23T09:05:17.297Z,69.3
2022-09-23T09:06:16.744Z,68.7
2022-09-23T09:07:36.469Z,68.6
2022-09-23T09:08:17.132Z,68.8
2022-09-23T09:09:16.575Z,67.9
2022-09-23T09:10:17.024Z,68.5
2022-09-23T09:11:16.488Z,68.0
2022-09-23T09:12:17.129Z,67.8
2022-09-23T09:13:16.563Z,67.6
2022-09-23T09:14:16.990Z,66.6
2022-09-23T09:15:16.469Z,67.2
2022-09-23T09:16:27.351Z,66.9
2022-09-23T09:17:17.410Z,66.5
2022-09-23T09:18:16.861Z,66.9
2022-09-23T09:19:17.487Z,67.4
2022-09-23T09:20:16.960Z,66.7
2022-09-23T09:21:17.471Z,67.3
2022-09-23T09:22:17.291Z,67.8
2022-09-23T09:23:16.721Z,67.8
2022-09-23T09:24:17.172Z,67.0
2022-09-23T09:25:16.597Z,66.8
2022-09-23T09:26:17.045Z,66.2
2022-09-23T09:27:16.480Z,66.0
2022-09-23T09:28:16.900Z,65.4
2022-09-23T09:29:35.677Z,64.6
2022-09-23T09:30:16.635Z,66.0
2022-09-23T09:31:17.202Z,65.8
2022-09-23T09:32:16.584Z,66.0
2022-09-23T09:33:17.038Z,65.2
2022-09-23T09:34:16.533Z,65.2
2022-09-23T09:35:17.039Z,64.8
2022-09-23T09:36:16.524Z,64.2
2022-09-23T09:37:16.992Z,63.8
2022-09-23T09:38:16.545Z,64.4
2022-09-23T09:39:16.990Z,65.4
2022-09-23T09:40:16.613Z,64.2
2022-09-23T09:41:17.134Z,63.5
2022-09-23T09:42:16.528Z,64.1
2022-09-23T09:43:16.972Z,63.7
2022-09-23T09:44:17.409Z,63.3
2022-09-23T09:45:19.980Z,63.0
2022-09-23T09:46:16.633Z,63.5
2022-09-23T09:47:17.140Z,63.6
2022-09-23T09:48:16.576Z,63.8
2022-09-23T09:49:17.032Z,63.2
2022-09-23T09:50:16.491Z,63.1
2022-09-23T09:51:16.958Z,63.5
2022-09-23T09:52:16.679Z,63.2
2022-09-23T09:53:17.063Z,62.8
2022-09-23T09:54:16.512Z,61.8
2022-09-23T09:55:16.968Z,63.0
2022-09-23T09:56:16.406Z,62.5
2022-09-23T09:57:16.822Z,62.0
2022-09-23T09:58:17.262Z,62.1
2022-09-23T09:59:16.752Z,60.8
2022-09-23T10:00:17.247Z,59.2
2022-09-23T10:01:16.823Z,60.5
2022-09-23T10:02:16.847Z,60.6
2022-09-23T10:03:17.320Z,60.5
2022-09-23T10:04:16.895Z,60.9
2022-09-23T10:05:17.373Z,61.0
2022-09-23T10:06:16.846Z,60.2
2022-09-23T10:07:17.280Z,60.1
2022-09-23T10:08:16.705Z,60.6
2022-09-23T10:09:17.153Z,61.2
2022-09-23T10:10:32.652Z,60.6
2022-09-23T10:11:16.394Z,60.1
2022-09-23T10:12:16.562Z,58.5
2022-09-23T10:13:16.995Z,59.0
2022-09-23T10:14:16.446Z,59.0
2022-09-23T10:15:16.906Z,57.7
2022-09-23T10:16:17.485Z,56.9
2022-09-23T10:17:16.953Z,58.2
2022-09-23T10:18:16.466Z,60.0
2022-09-23T10:19:16.935Z,59.2
2022-09-23T10:20:16.653Z,58.9
2022-09-23T10:21:17.182Z,58.5
2022-09-23T10:22:16.648Z,58.1
2022-09-23T10:23:17.111Z,57.4
2022-09-23T10:24:16.562Z,56.4
2022-09-23T10:25:16.986Z,57.0
2022-09-23T10:26:16.402Z,57.2
2022-09-23T10:27:16.855Z,57.8
2022-09-23T10:28:17.292Z,58.8
2022-09-23T10:29:16.785Z,59.0
2022-09-23T10:30:17.296Z,59.3
2022-09-23T10:31:16.943Z,59.2
2022-09-23T10:32:16.561Z,59.1
2022-09-23T10:33:17.025Z,58.9
2022-09-23T10:34:16.504Z,60.5
2022-09-23T10:35:16.963Z,60.6
2022-09-23T10:36:16.413Z,59.3
2022-09-23T10:37:16.858Z,60.5
2022-09-23T10:38:17.290Z,59.2
2022-09-23T10:39:16.733Z,59.2
2022-09-23T10:40:17.498Z,59.1
2022-09-23T10:41:17.032Z,59.9
2022-09-23T10:42:17.006Z,58.9
2022-09-23T10:43:16.428Z,60.1
2022-09-23T10:44:16.904Z,59.2
2022-09-23T10:45:17.405Z,59.1
2022-09-23T10:46:17.016Z,57.1
2022-09-23T10:47:16.517Z,58.0
2022-09-23T10:48:16.981Z,57.6
2022-09-23T10:49:16.448Z,57.8
2022-09-23T10:50:16.943Z,56.9
2022-09-23T10:51:16.388Z,56.6
2022-09-23T10:52:17.036Z,56.4
2022-09-23T10:53:16.454Z,57.6
2022-09-23T10:54:16.916Z,58.0
2022-09-23T10:55:17.386Z,56.8
2022-09-23T10:56:16.825Z,57.5
2022-09-23T10:57:17.273Z,56.9
2022-09-23T10:58:16.758Z,56.9
2022-09-23T10:59:17.236Z,56.3
2022-09-23T11:00:16.717Z,56.4
2022-09-23T11:01:17.404Z,57.5
2022-09-23T11:02:16.698Z,57.8
2022-09-23T11:03:17.162Z,56.8
2022-09-23T11:04:16.852Z,56.9
2022-09-23T11:05:17.581Z,56.8
2022-09-23T11:06:17.011Z,56.9
2022-09-23T11:07:16.438Z,57.5
2022-09-23T11:08:16.857Z,58.4
2022-09-23T11:09:17.281Z,57.5
2022-09-23T11:10:45.293Z,57.4
2022-09-23T11:11:17.112Z,56.2
2022-09-23T11:12:16.745Z,56.7
2022-09-23T11:13:17.193Z,56.9
2022-09-23T11:14:16.661Z,56.2
2022-09-23T11:15:17.158Z,57.4
2022-09-23T11:16:16.754Z,56.5
2022-09-23T11:17:17.219Z,57.1
2022-09-23T11:18:16.698Z,56.3
2022-09-23T11:19:17.156Z,56.7
2022-09-23T11:20:16.610Z,58.2
2022-09-23T11:21:17.077Z,58.2
2022-09-23T11:22:16.470Z,57.5
2022-09-23T11:23:16.905Z,57.5
2022-09-23T11:24:17.330Z,56.9
2022-09-23T11:25:16.770Z,57.2
2022-09-23T11:26:17.199Z,57.4
2022-09-23T11:27:16.677Z,56.5
2022-09-23T11:28:17.159Z,57.4
2022-09-23T11:29:16.623Z,59.1
2022-09-23T11:30:17.135Z,58.0
2022-09-23T11:31:16.669Z,57.2
2022-09-23T11:32:17.228Z,57.8
2022-09-23T11:33:16.710Z,57.6
2022-09-23T11:34:17.182Z,57.0
2022-09-23T11:35:16.663Z,56.5
2022-09-23T11:36:17.081Z,57.8
2022-09-23T11:37:16.529Z,59.5
2022-09-23T11:38:16.948Z,58.5
2022-09-23T11:39:16.385Z,57.4
2022-09-23T11:40:16.984Z,57.8
2022-09-23T11:41:16.438Z,58.0
2022-09-23T11:42:16.976Z,58.8
2022-09-23T11:43:16.469Z,58.0
2022-09-23T11:44:16.928Z,58.5
2022-09-23T11:45:17.416Z,57.7
2022-09-23T11:46:17.012Z,56.5
2022-09-23T11:47:16.477Z,56.7
2022-09-23T11:48:16.927Z,58.5
2022-09-23T11:49:17.374Z,58.8
2022-09-23T11:50:16.790Z,57.6
2022-09-23T11:51:17.254Z,58.4
2022-09-23T11:52:16.993Z,57.6
2022-09-23T11:53:16.410Z,57.0
2022-09-23T11:54:20.934Z,56.9
2022-09-23T11:55:22.885Z,57.5
2022-09-23T11:56:33.237Z,57.7
2022-09-23T11:57:16.989Z,58.0
2022-09-23T11:58:25.462Z,57.4
2022-09-23T11:59:16.899Z,56.9
2022-09-23T12:00:16.598Z,58.0
2022-09-23T12:01:20.416Z,58.2
2022-09-23T12:02:21.779Z,58.0
2022-09-23T12:03:17.689Z,58.5
2022-09-23T12:04:21.490Z,58.6
2022-09-23T12:05:17.373Z,58.3
2022-09-23T12:06:16.883Z,58.3
2022-09-23T12:07:17.522Z,58.2
2022-09-23T12:08:16.974Z,58.7
2022-09-23T12:09:16.393Z,60.4
2022-09-23T12:10:16.819Z,58.0
2022-09-23T12:11:17.291Z,58.1
2022-09-23T12:12:16.814Z,58.4
2022-09-23T12:13:17.416Z,58.1
2022-09-23T12:14:16.903Z,57.5
2022-09-23T12:15:17.387Z,57.9
2022-09-23T12:16:17.028Z,59.0
2022-09-23T12:17:16.673Z,57.2
2022-09-23T12:18:23.357Z,57.7
2022-09-23T12:19:16.888Z,56.8
2022-09-23T12:20:17.314Z,56.5
2022-09-23T12:21:48.989Z,57.0
2022-09-23T12:22:17.232Z,58.0
2022-09-23T12:23:16.654Z,57.6
2022-09-23T12:24:19.412Z,57.6
2022-09-23T12:25:17.053Z,58.0
2022-09-23T12:26:16.553Z,56.6
2022-09-23T12:27:17.017Z,57.9
2022-09-23T12:28:16.508Z,58.5
2022-09-23T12:29:17.079Z,58.4
2022-09-23T12:30:16.556Z,58.0
2022-09-23T12:31:17.168Z,56.5
2022-09-23T12:32:16.462Z,57.7
2022-09-23T12:33:16.935Z,56.0
2022-09-23T12:34:17.367Z,57.0
2022-09-23T12:35:16.787Z,55.8
2022-09-23T12:36:17.206Z,56.9
2022-09-23T12:37:16.667Z,56.2
2022-09-23T12:38:17.090Z,56.8
2022-09-23T12:39:16.534Z,56.0
2022-09-23T12:40:17.087Z,56.4
2022-09-23T12:41:16.577Z,55.5
2022-09-23T12:42:17.126Z,55.5
2022-09-23T12:43:16.641Z,55.5
2022-09-23T12:44:17.105Z,55.7
2022-09-23T12:45:16.568Z,56.2
2022-09-23T12:46:17.171Z,55.5
2022-09-23T12:47:16.704Z,55.5
2022-09-23T12:48:17.159Z,55.2
2022-09-23T12:49:16.600Z,55.4
2022-09-23T12:50:23.665Z,55.5
2022-09-23T12:51:17.222Z,56.2
2022-09-23T12:52:17.045Z,56.7
2022-09-23T12:53:16.494Z,56.5
2022-09-23T12:54:16.909Z,56.4
2022-09-23T12:55:17.366Z,57.5
2022-09-23T12:56:16.839Z,56.5
2022-09-23T12:57:17.329Z,57.4
2022-09-23T12:58:16.782Z,57.2
2022-09-23T12:59:17.257Z,56.0
2022-09-23T13:00:16.700Z,55.8
2022-09-23T13:01:17.367Z,55.1
2022-09-23T13:02:17.089Z,55.3
2022-09-23T13:03:16.645Z,55.3
2022-09-23T13:04:17.061Z,55.5
2022-09-23T13:05:16.507Z,55.7
2022-09-23T13:06:16.963Z,56.0
2022-09-23T13:07:16.381Z,56.4
2022-09-23T13:08:16.860Z,57.0
2022-09-23T13:09:17.306Z,56.7
2022-09-23T13:10:16.951Z,55.5
2022-09-23T13:11:17.416Z,54.6
2022-09-23T13:12:16.688Z,53.5
2022-09-23T13:13:17.171Z,53.8
2022-09-23T13:14:16.649Z,55.1
2022-09-23T13:15:17.100Z,53.2
2022-09-23T13:16:16.628Z,54.2
2022-09-23T13:17:17.174Z,54.0
2022-09-23T13:18:16.605Z,54.5